sensor_id;sensor_type;location;lat;lon;timestamp;P1;durP1;ratioP1;P2;durP2;ratioP2
71108;SDS011;59614;51.012;-1.648;2022-10-16T00:00:33;14.43;;;2.80;;
71108;SDS011;59614;51.012;-1.648;2022-10-16T00:02:59;17.73;;;2.75;;
71108;SDS011;59614;51.012;-1.648;2022-10-16T00:05:25;13.75;;;2.65;;
71108;SDS011;59614;51.012;-1.648;2022-10-16T00:07:51;16.95;;;2.58;;
71108;SDS011;59614;51.012;-1.648;2022-10-16T00:10:16;22.85;;;3.10;;
71108;SDS011;59614;51.012;-1.648;2022-10-16T00:12:42;23.58;;;3.50;;
71108;SDS011;59614;51.012;-1.648;2022-10-16T00:15:07;17.42;;;3.22;;
71108;SDS011;59614;51.012;-1.648;2022-10-16T00:17:33;29.52;;;3.75;;
71108;SDS011;59614;51.012;-1.648;2022-10-16T00:19:59;21.15;;;3.58;;
71108;SDS011;59614;51.012;-1.648;2022-10-16T00:22:24;24.55;;;3.83;;
71108;SDS011;59614;51.012;-1.648;2022-10-16T00:24:50;18.35;;;3.20;;
71108;SDS011;59614;51.012;-1.648;2022-10-16T00:27:16;23.95;;;3.60;;
71108;SDS011;59614;51.012;-1.648;2022-10-16T00:29:41;27.15;;;3.70;;
71108;SDS011;59614;51.012;-1.648;2022-10-16T00:32:07;14.02;;;2.70;;
71108;SDS011;59614;51.012;-1.648;2022-10-16T00:34:33;22.33;;;3.05;;
71108;SDS011;59614;51.012;-1.648;2022-10-16T00:36:58;24.48;;;3.60;;
71108;SDS011;59614;51.012;-1.648;2022-10-16T00:39:24;21.92;;;3.53;;
71108;SDS011;59614;51.012;-1.648;2022-10-16T00:41:50;30.63;;;3.97;;
71108;SDS011;59614;51.012;-1.648;2022-10-16T00:52:46;22.88;;;3.90;;
71108;SDS011;59614;51.012;-1.648;2022-10-16T00:55:15;22.25;;;4.38;;
71108;SDS011;59614;51.012;-1.648;2022-10-16T00:57:41;22.33;;;3.47;;
71108;SDS011;59614;51.012;-1.648;2022-10-16T01:00:08;24.50;;;3.35;;
71108;SDS011;59614;51.012;-1.648;2022-10-16T01:02:36;20.05;;;2.97;;
71108;SDS011;59614;51.012;-1.648;2022-10-16T01:05:01;20.33;;;2.88;;
71108;SDS011;59614;51.012;-1.648;2022-10-16T01:12:51;20.20;;;3.20;;
71108;SDS011;59614;51.012;-1.648;2022-10-16T01:21:32;22.92;;;2.83;;
71108;SDS011;59614;51.012;-1.648;2022-10-16T01:27:12;18.48;;;2.55;;
71108;SDS011;59614;51.012;-1.648;2022-10-16T01:32:23;33.83;;;3.67;;
71108;SDS011;59614;51.012;-1.648;2022-10-16T01:35:11;23.67;;;2.90;;
71108;SDS011;59614;51.012;-1.648;2022-10-16T01:38:19;18.92;;;3.45;;
71108;SDS011;59614;51.012;-1.648;2022-10-16T01:40:28;13.15;;;2.50;;
71108;SDS011;59614;51.012;-1.648;2022-10-16T01:42:56;15.68;;;2.47;;
71108;SDS011;59614;51.012;-1.648;2022-10-16T01:45:26;12.80;;;2.40;;
71108;SDS011;59614;51.012;-1.648;2022-10-16T01:47:55;14.75;;;2.33;;
71108;SDS011;59614;51.012;-1.648;2022-10-16T01:50:23;17.30;;;2.67;;
71108;SDS011;59614;51.012;-1.648;2022-10-16T01:52:50;17.30;;;2.47;;
71108;SDS011;59614;51.012;-1.648;2022-10-16T01:55:21;13.00;;;2.50;;
71108;SDS011;59614;51.012;-1.648;2022-10-16T01:57:50;36.40;;;3.47;;
71108;SDS011;59614;51.012;-1.648;2022-10-16T02:02:46;25.23;;;2.50;;
71108;SDS011;59614;51.012;-1.648;2022-10-16T02:08:21;20.38;;;2.75;;
71108;SDS011;59614;51.012;-1.648;2022-10-16T02:10:49;20.83;;;2.50;;
71108;SDS011;59614;51.012;-1.648;2022-10-16T02:13:34;18.42;;;2.70;;
71108;SDS011;59614;51.012;-1.648;2022-10-16T02:16:23;19.80;;;2.80;;
71108;SDS011;59614;51.012;-1.648;2022-10-16T02:18:58;15.07;;;2.15;;
71108;SDS011;59614;51.012;-1.648;2022-10-16T02:21:25;11.18;;;2.20;;
71108;SDS011;59614;51.012;-1.648;2022-10-16T02:23:55;19.20;;;2.78;;
71108;SDS011;59614;51.012;-1.648;2022-10-16T02:26:35;20.30;;;2.00;;
71108;SDS011;59614;51.012;-1.648;2022-10-16T02:29:12;26.25;;;2.78;;
71108;SDS011;59614;51.012;-1.648;2022-10-16T02:31:42;20.88;;;3.00;;
71108;SDS011;59614;51.012;-1.648;2022-10-16T02:34:12;25.77;;;2.72;;
71108;SDS011;59614;51.012;-1.648;2022-10-16T02:36:39;24.35;;;2.90;;
71108;SDS011;59614;51.012;-1.648;2022-10-16T02:39:05;27.08;;;2.60;;
71108;SDS011;59614;51.012;-1.648;2022-10-16T02:41:32;13.55;;;2.67;;
71108;SDS011;59614;51.012;-1.648;2022-10-16T02:43:58;28.33;;;3.05;;
71108;SDS011;59614;51.012;-1.648;2022-10-16T02:46:23;15.77;;;2.63;;
71108;SDS011;59614;51.012;-1.648;2022-10-16T02:48:49;23.17;;;3.03;;
71108;SDS011;59614;51.012;-1.648;2022-10-16T02:51:14;22.35;;;2.75;;
71108;SDS011;59614;51.012;-1.648;2022-10-16T02:53:39;16.95;;;2.92;;
71108;SDS011;59614;51.012;-1.648;2022-10-16T02:56:05;22.23;;;3.10;;
71108;SDS011;59614;51.012;-1.648;2022-10-16T02:58:30;16.55;;;2.97;;
71108;SDS011;59614;51.012;-1.648;2022-10-16T03:00:56;20.85;;;3.03;;
71108;SDS011;59614;51.012;-1.648;2022-10-16T03:03:21;17.13;;;2.78;;
71108;SDS011;59614;51.012;-1.648;2022-10-16T03:05:47;14.60;;;2.85;;
71108;SDS011;59614;51.012;-1.648;2022-10-16T03:08:13;16.80;;;3.30;;
71108;SDS011;59614;51.012;-1.648;2022-10-16T03:10:38;14.65;;;2.53;;
71108;SDS011;59614;51.012;-1.648;2022-10-16T03:13:04;18.23;;;3.13;;
71108;SDS011;59614;51.012;-1.648;2022-10-16T03:15:29;26.33;;;3.58;;
71108;SDS011;59614;51.012;-1.648;2022-10-16T03:17:58;23.02;;;3.08;;
71108;SDS011;59614;51.012;-1.648;2022-10-16T03:20:24;19.65;;;3.20;;
71108;SDS011;59614;51.012;-1.648;2022-10-16T03:22:50;17.75;;;3.08;;
71108;SDS011;59614;51.012;-1.648;2022-10-16T03:25:15;29.67;;;3.50;;
71108;SDS011;59614;51.012;-1.648;2022-10-16T03:27:41;16.67;;;2.47;;
71108;SDS011;59614;51.012;-1.648;2022-10-16T03:30:07;29.77;;;3.35;;
71108;SDS011;59614;51.012;-1.648;2022-10-16T03:32:33;14.68;;;3.00;;
71108;SDS011;59614;51.012;-1.648;2022-10-16T03:34:58;15.60;;;2.70;;
71108;SDS011;59614;51.012;-1.648;2022-10-16T03:37:24;21.50;;;2.83;;
71108;SDS011;59614;51.012;-1.648;2022-10-16T03:39:49;27.67;;;3.50;;
71108;SDS011;59614;51.012;-1.648;2022-10-16T03:42:15;26.45;;;2.97;;
71108;SDS011;59614;51.012;-1.648;2022-10-16T03:44:40;19.95;;;2.83;;
71108;SDS011;59614;51.012;-1.648;2022-10-16T03:47:06;29.70;;;3.78;;
71108;SDS011;59614;51.012;-1.648;2022-10-16T03:49:31;18.25;;;2.63;;
71108;SDS011;59614;51.012;-1.648;2022-10-16T03:51:57;33.60;;;3.35;;
71108;SDS011;59614;51.012;-1.648;2022-10-16T03:54:22;26.40;;;3.10;;
71108;SDS011;59614;51.012;-1.648;2022-10-16T03:56:48;19.73;;;2.70;;
71108;SDS011;59614;51.012;-1.648;2022-10-16T03:59:13;21.58;;;2.72;;
71108;SDS011;59614;51.012;-1.648;2022-10-16T04:01:39;24.35;;;3.03;;
71108;SDS011;59614;51.012;-1.648;2022-10-16T04:04:05;23.20;;;3.47;;
71108;SDS011;59614;51.012;-1.648;2022-10-16T04:06:30;23.02;;;3.00;;
71108;SDS011;59614;51.012;-1.648;2022-10-16T04:08:55;23.70;;;3.28;;
71108;SDS011;59614;51.012;-1.648;2022-10-16T04:11:21;20.20;;;2.88;;
71108;SDS011;59614;51.012;-1.648;2022-10-16T04:13:47;27.33;;;3.72;;
71108;SDS011;59614;51.012;-1.648;2022-10-16T04:16:12;23.50;;;3.15;;
71108;SDS011;59614;51.012;-1.648;2022-10-16T04:18:38;15.93;;;2.85;;
71108;SDS011;59614;51.012;-1.648;2022-10-16T04:21:04;23.20;;;2.88;;
71108;SDS011;59614;51.012;-1.648;2022-10-16T04:23:30;22.55;;;2.92;;
71108;SDS011;59614;51.012;-1.648;2022-10-16T04:25:56;32.03;;;3.92;;
71108;SDS011;59614;51.012;-1.648;2022-10-16T04:28:22;27.55;;;3.35;;
71108;SDS011;59614;51.012;-1.648;2022-10-16T04:30:47;30.52;;;3.38;;
71108;SDS011;59614;51.012;-1.648;2022-10-16T04:33:12;22.20;;;3.17;;
71108;SDS011;59614;51.012;-1.648;2022-10-16T04:35:38;20.60;;;3.33;;
71108;SDS011;59614;51.012;-1.648;2022-10-16T04:38:04;31.70;;;3.15;;
71108;SDS011;59614;51.012;-1.648;2022-10-16T04:40:29;23.00;;;3.05;;
71108;SDS011;59614;51.012;-1.648;2022-10-16T04:45:23;26.98;;;3.58;;
71108;SDS011;59614;51.012;-1.648;2022-10-16T04:47:48;27.15;;;3.13;;
71108;SDS011;59614;51.012;-1.648;2022-10-16T04:50:14;18.83;;;3.80;;
71108;SDS011;59614;51.012;-1.648;2022-10-16T04:52:39;23.15;;;3.03;;
71108;SDS011;59614;51.012;-1.648;2022-10-16T04:55:05;17.70;;;2.88;;
71108;SDS011;59614;51.012;-1.648;2022-10-16T04:57:31;18.60;;;2.72;;
71108;SDS011;59614;51.012;-1.648;2022-10-16T04:59:58;23.02;;;2.90;;
71108;SDS011;59614;51.012;-1.648;2022-10-16T05:02:23;20.27;;;2.42;;
71108;SDS011;59614;51.012;-1.648;2022-10-16T05:04:49;15.02;;;2.60;;
71108;SDS011;59614;51.012;-1.648;2022-10-16T05:07:14;23.88;;;3.15;;
71108;SDS011;59614;51.012;-1.648;2022-10-16T05:09:40;13.25;;;2.90;;
71108;SDS011;59614;51.012;-1.648;2022-10-16T05:12:06;11.20;;;1.90;;
71108;SDS011;59614;51.012;-1.648;2022-10-16T05:14:31;19.58;;;3.08;;
71108;SDS011;59614;51.012;-1.648;2022-10-16T05:16:57;21.15;;;3.20;;
71108;SDS011;59614;51.012;-1.648;2022-10-16T05:19:22;20.08;;;2.78;;
71108;SDS011;59614;51.012;-1.648;2022-10-16T05:21:48;24.95;;;3.60;;
71108;SDS011;59614;51.012;-1.648;2022-10-16T05:24:13;31.20;;;3.97;;
71108;SDS011;59614;51.012;-1.648;2022-10-16T05:26:39;36.40;;;4.53;;
71108;SDS011;59614;51.012;-1.648;2022-10-16T05:29:04;20.50;;;2.85;;
71108;SDS011;59614;51.012;-1.648;2022-10-16T05:31:30;20.13;;;2.67;;
71108;SDS011;59614;51.012;-1.648;2022-10-16T05:33:59;22.25;;;3.10;;
71108;SDS011;59614;51.012;-1.648;2022-10-16T05:36:25;20.20;;;3.17;;
71108;SDS011;59614;51.012;-1.648;2022-10-16T05:38:51;15.48;;;2.63;;
71108;SDS011;59614;51.012;-1.648;2022-10-16T05:41:17;10.30;;;2.30;;
71108;SDS011;59614;51.012;-1.648;2022-10-16T05:43:46;24.05;;;3.10;;
71108;SDS011;59614;51.012;-1.648;2022-10-16T05:46:12;19.33;;;3.13;;
71108;SDS011;59614;51.012;-1.648;2022-10-16T05:48:38;24.85;;;3.03;;
71108;SDS011;59614;51.012;-1.648;2022-10-16T05:51:04;24.85;;;3.75;;
71108;SDS011;59614;51.012;-1.648;2022-10-16T05:53:34;21.10;;;3.00;;
71108;SDS011;59614;51.012;-1.648;2022-10-16T05:56:01;21.67;;;3.35;;
71108;SDS011;59614;51.012;-1.648;2022-10-16T05:58:33;18.52;;;3.20;;
71108;SDS011;59614;51.012;-1.648;2022-10-16T06:01:10;17.50;;;2.50;;
71108;SDS011;59614;51.012;-1.648;2022-10-16T06:03:38;22.90;;;3.13;;
71108;SDS011;59614;51.012;-1.648;2022-10-16T06:06:09;17.65;;;3.53;;
71108;SDS011;59614;51.012;-1.648;2022-10-16T06:08:40;21.20;;;3.70;;
71108;SDS011;59614;51.012;-1.648;2022-10-16T06:11:10;19.75;;;3.40;;
71108;SDS011;59614;51.012;-1.648;2022-10-16T06:13:38;20.90;;;4.85;;
71108;SDS011;59614;51.012;-1.648;2022-10-16T06:16:06;24.17;;;5.88;;
71108;SDS011;59614;51.012;-1.648;2022-10-16T06:18:31;26.65;;;4.15;;
71108;SDS011;59614;51.012;-1.648;2022-10-16T06:20:57;23.83;;;3.92;;
71108;SDS011;59614;51.012;-1.648;2022-10-16T06:23:24;21.73;;;4.13;;
71108;SDS011;59614;51.012;-1.648;2022-10-16T06:25:50;21.35;;;3.75;;
71108;SDS011;59614;51.012;-1.648;2022-10-16T06:28:16;15.48;;;3.25;;
71108;SDS011;59614;51.012;-1.648;2022-10-16T06:30:42;16.15;;;2.75;;
71108;SDS011;59614;51.012;-1.648;2022-10-16T06:33:11;16.13;;;2.83;;
71108;SDS011;59614;51.012;-1.648;2022-10-16T06:35:37;33.17;;;5.90;;
71108;SDS011;59614;51.012;-1.648;2022-10-16T06:38:02;28.90;;;7.75;;
71108;SDS011;59614;51.012;-1.648;2022-10-16T06:40:28;29.25;;;4.10;;
71108;SDS011;59614;51.012;-1.648;2022-10-16T06:42:56;21.35;;;3.58;;
71108;SDS011;59614;51.012;-1.648;2022-10-16T06:45:22;24.23;;;3.50;;
71108;SDS011;59614;51.012;-1.648;2022-10-16T06:47:47;25.15;;;4.55;;
71108;SDS011;59614;51.012;-1.648;2022-10-16T06:50:13;21.77;;;3.80;;
71108;SDS011;59614;51.012;-1.648;2022-10-16T06:52:39;19.90;;;3.40;;
71108;SDS011;59614;51.012;-1.648;2022-10-16T06:55:04;27.73;;;3.50;;
71108;SDS011;59614;51.012;-1.648;2022-10-16T06:57:30;18.70;;;3.25;;
71108;SDS011;59614;51.012;-1.648;2022-10-16T06:59:56;30.15;;;4.45;;
71108;SDS011;59614;51.012;-1.648;2022-10-16T07:02:21;18.48;;;3.90;;
71108;SDS011;59614;51.012;-1.648;2022-10-16T07:04:47;25.50;;;4.65;;
71108;SDS011;59614;51.012;-1.648;2022-10-16T07:07:12;20.48;;;4.18;;
71108;SDS011;59614;51.012;-1.648;2022-10-16T07:09:38;34.90;;;5.47;;
71108;SDS011;59614;51.012;-1.648;2022-10-16T07:12:03;26.08;;;5.30;;
71108;SDS011;59614;51.012;-1.648;2022-10-16T07:14:29;31.08;;;5.45;;
71108;SDS011;59614;51.012;-1.648;2022-10-16T07:16:55;25.02;;;5.40;;
71108;SDS011;59614;51.012;-1.648;2022-10-16T07:19:20;22.90;;;5.30;;
71108;SDS011;59614;51.012;-1.648;2022-10-16T07:21:46;18.40;;;4.68;;
71108;SDS011;59614;51.012;-1.648;2022-10-16T07:24:13;10.93;;;4.05;;
71108;SDS011;59614;51.012;-1.648;2022-10-16T07:26:40;18.70;;;4.05;;
71108;SDS011;59614;51.012;-1.648;2022-10-16T07:29:18;15.48;;;4.40;;
71108;SDS011;59614;51.012;-1.648;2022-10-16T07:31:45;19.95;;;3.95;;
71108;SDS011;59614;51.012;-1.648;2022-10-16T07:34:12;19.55;;;4.82;;
71108;SDS011;59614;51.012;-1.648;2022-10-16T07:36:38;20.40;;;3.58;;
71108;SDS011;59614;51.012;-1.648;2022-10-16T07:39:04;14.40;;;3.22;;
71108;SDS011;59614;51.012;-1.648;2022-10-16T07:41:30;12.77;;;3.50;;
71108;SDS011;59614;51.012;-1.648;2022-10-16T07:43:58;24.27;;;4.45;;
71108;SDS011;59614;51.012;-1.648;2022-10-16T07:46:25;22.35;;;3.80;;
71108;SDS011;59614;51.012;-1.648;2022-10-16T07:48:51;15.82;;;3.85;;
71108;SDS011;59614;51.012;-1.648;2022-10-16T07:51:18;22.73;;;4.55;;
71108;SDS011;59614;51.012;-1.648;2022-10-16T07:53:46;19.67;;;4.07;;
71108;SDS011;59614;51.012;-1.648;2022-10-16T07:56:12;24.75;;;5.25;;
71108;SDS011;59614;51.012;-1.648;2022-10-16T07:58:38;30.58;;;7.18;;
71108;SDS011;59614;51.012;-1.648;2022-10-16T08:01:11;37.10;;;9.60;;
71108;SDS011;59614;51.012;-1.648;2022-10-16T08:03:38;27.30;;;6.68;;
71108;SDS011;59614;51.012;-1.648;2022-10-16T08:08:31;19.70;;;4.97;;
71108;SDS011;59614;51.012;-1.648;2022-10-16T08:10:57;20.60;;;4.25;;
71108;SDS011;59614;51.012;-1.648;2022-10-16T08:13:22;23.98;;;4.22;;
71108;SDS011;59614;51.012;-1.648;2022-10-16T08:15:48;26.00;;;4.00;;
71108;SDS011;59614;51.012;-1.648;2022-10-16T08:18:14;21.55;;;4.60;;
71108;SDS011;59614;51.012;-1.648;2022-10-16T08:20:40;21.63;;;4.32;;
71108;SDS011;59614;51.012;-1.648;2022-10-16T08:23:07;25.42;;;4.97;;
71108;SDS011;59614;51.012;-1.648;2022-10-16T08:25:34;23.00;;;3.83;;
71108;SDS011;59614;51.012;-1.648;2022-10-16T08:28:02;18.05;;;4.28;;
71108;SDS011;59614;51.012;-1.648;2022-10-16T08:32:54;20.58;;;4.32;;
71108;SDS011;59614;51.012;-1.648;2022-10-16T08:35:20;21.45;;;4.05;;
71108;SDS011;59614;51.012;-1.648;2022-10-16T08:37:46;32.60;;;4.70;;
71108;SDS011;59614;51.012;-1.648;2022-10-16T08:40:22;22.50;;;5.05;;
71108;SDS011;59614;51.012;-1.648;2022-10-16T08:48:27;17.40;;;3.30;;
71108;SDS011;59614;51.012;-1.648;2022-10-16T08:50:54;26.60;;;3.78;;
71108;SDS011;59614;51.012;-1.648;2022-10-16T08:53:22;22.02;;;3.95;;
71108;SDS011;59614;51.012;-1.648;2022-10-16T08:55:53;31.90;;;4.43;;
71108;SDS011;59614;51.012;-1.648;2022-10-16T08:58:20;22.05;;;3.60;;
71108;SDS011;59614;51.012;-1.648;2022-10-16T09:00:53;27.58;;;4.03;;
71108;SDS011;59614;51.012;-1.648;2022-10-16T09:06:03;19.02;;;3.97;;
71108;SDS011;59614;51.012;-1.648;2022-10-16T09:11:50;25.63;;;4.18;;
71108;SDS011;59614;51.012;-1.648;2022-10-16T09:17:26;18.23;;;3.42;;
71108;SDS011;59614;51.012;-1.648;2022-10-16T09:25:29;19.58;;;3.75;;
71108;SDS011;59614;51.012;-1.648;2022-10-16T09:27:56;16.10;;;2.78;;
71108;SDS011;59614;51.012;-1.648;2022-10-16T09:30:22;33.65;;;4.70;;
71108;SDS011;59614;51.012;-1.648;2022-10-16T09:32:49;15.15;;;3.20;;
71108;SDS011;59614;51.012;-1.648;2022-10-16T09:35:20;20.90;;;3.35;;
71108;SDS011;59614;51.012;-1.648;2022-10-16T09:37:51;18.55;;;3.13;;
71108;SDS011;59614;51.012;-1.648;2022-10-16T09:42:57;15.60;;;3.67;;
71108;SDS011;59614;51.012;-1.648;2022-10-16T09:45:28;26.73;;;5.82;;
71108;SDS011;59614;51.012;-1.648;2022-10-16T09:47:54;30.58;;;5.85;;
71108;SDS011;59614;51.012;-1.648;2022-10-16T09:50:29;27.00;;;5.97;;
71108;SDS011;59614;51.012;-1.648;2022-10-16T09:55:52;17.20;;;3.30;;
71108;SDS011;59614;51.012;-1.648;2022-10-16T09:58:21;28.67;;;5.78;;
71108;SDS011;59614;51.012;-1.648;2022-10-16T10:00:52;19.83;;;3.78;;
71108;SDS011;59614;51.012;-1.648;2022-10-16T10:03:38;18.17;;;4.30;;
71108;SDS011;59614;51.012;-1.648;2022-10-16T10:08:55;19.80;;;4.15;;
71108;SDS011;59614;51.012;-1.648;2022-10-16T10:11:39;18.15;;;3.72;;
71108;SDS011;59614;51.012;-1.648;2022-10-16T10:16:51;24.10;;;4.20;;
71108;SDS011;59614;51.012;-1.648;2022-10-16T10:19:22;27.00;;;3.70;;
71108;SDS011;59614;51.012;-1.648;2022-10-16T10:21:49;19.25;;;4.13;;
71108;SDS011;59614;51.012;-1.648;2022-10-16T10:24:17;20.35;;;3.72;;
71108;SDS011;59614;51.012;-1.648;2022-10-16T10:26:47;33.00;;;4.88;;
71108;SDS011;59614;51.012;-1.648;2022-10-16T10:29:17;28.65;;;4.35;;
71108;SDS011;59614;51.012;-1.648;2022-10-16T10:32:05;20.33;;;4.43;;
71108;SDS011;59614;51.012;-1.648;2022-10-16T10:34:45;18.88;;;4.00;;
71108;SDS011;59614;51.012;-1.648;2022-10-16T10:45:38;24.23;;;4.43;;
71108;SDS011;59614;51.012;-1.648;2022-10-16T10:51:08;26.63;;;4.80;;
71108;SDS011;59614;51.012;-1.648;2022-10-16T11:07:17;20.13;;;3.67;;
71108;SDS011;59614;51.012;-1.648;2022-10-16T11:09:47;23.38;;;3.90;;
71108;SDS011;59614;51.012;-1.648;2022-10-16T11:12:26;19.33;;;3.88;;
71108;SDS011;59614;51.012;-1.648;2022-10-16T11:14:58;19.27;;;3.60;;
71108;SDS011;59614;51.012;-1.648;2022-10-16T11:18:11;20.92;;;3.90;;
71108;SDS011;59614;51.012;-1.648;2022-10-16T11:21:00;22.30;;;3.88;;
71108;SDS011;59614;51.012;-1.648;2022-10-16T11:23:38;34.00;;;4.70;;
71108;SDS011;59614;51.012;-1.648;2022-10-16T11:26:16;20.52;;;3.55;;
71108;SDS011;59614;51.012;-1.648;2022-10-16T11:28:47;20.88;;;3.47;;
71108;SDS011;59614;51.012;-1.648;2022-10-16T11:31:37;22.50;;;3.97;;
71108;SDS011;59614;51.012;-1.648;2022-10-16T11:34:12;17.02;;;3.42;;
71108;SDS011;59614;51.012;-1.648;2022-10-16T11:37:10;20.15;;;3.75;;
71108;SDS011;59614;51.012;-1.648;2022-10-16T11:39:39;26.33;;;4.03;;
71108;SDS011;59614;51.012;-1.648;2022-10-16T11:42:15;21.42;;;4.28;;
71108;SDS011;59614;51.012;-1.648;2022-10-16T11:55:42;17.77;;;4.10;;
71108;SDS011;59614;51.012;-1.648;2022-10-16T11:58:18;20.10;;;4.53;;
71108;SDS011;59614;51.012;-1.648;2022-10-16T12:01:00;20.45;;;4.57;;
71108;SDS011;59614;51.012;-1.648;2022-10-16T12:03:41;17.42;;;3.30;;
71108;SDS011;59614;51.012;-1.648;2022-10-16T12:06:17;26.08;;;4.43;;
71108;SDS011;59614;51.012;-1.648;2022-10-16T12:08:56;20.92;;;4.20;;
71108;SDS011;59614;51.012;-1.648;2022-10-16T12:16:56;18.00;;;4.63;;
71108;SDS011;59614;51.012;-1.648;2022-10-16T12:19:25;22.98;;;4.13;;
71108;SDS011;59614;51.012;-1.648;2022-10-16T12:24:31;17.00;;;3.95;;
71108;SDS011;59614;51.012;-1.648;2022-10-16T12:27:00;24.10;;;4.28;;
71108;SDS011;59614;51.012;-1.648;2022-10-16T12:29:30;21.27;;;4.38;;
71108;SDS011;59614;51.012;-1.648;2022-10-16T12:32:00;20.33;;;3.65;;
71108;SDS011;59614;51.012;-1.648;2022-10-16T12:37:10;23.60;;;4.03;;
71108;SDS011;59614;51.012;-1.648;2022-10-16T12:39:39;22.98;;;4.10;;
71108;SDS011;59614;51.012;-1.648;2022-10-16T12:42:19;19.23;;;4.25;;
71108;SDS011;59614;51.012;-1.648;2022-10-16T12:44:45;19.65;;;3.72;;
71108;SDS011;59614;51.012;-1.648;2022-10-16T12:47:21;23.92;;;4.53;;
71108;SDS011;59614;51.012;-1.648;2022-10-16T12:49:50;24.88;;;4.13;;
71108;SDS011;59614;51.012;-1.648;2022-10-16T12:52:28;27.70;;;4.20;;
71108;SDS011;59614;51.012;-1.648;2022-10-16T12:54:57;19.95;;;3.80;;
71108;SDS011;59614;51.012;-1.648;2022-10-16T13:12:04;18.42;;;4.07;;
71108;SDS011;59614;51.012;-1.648;2022-10-16T13:21:05;13.60;;;3.20;;
71108;SDS011;59614;51.012;-1.648;2022-10-16T13:29:02;16.15;;;3.45;;
71108;SDS011;59614;51.012;-1.648;2022-10-16T13:31:29;16.65;;;3.40;;
71108;SDS011;59614;51.012;-1.648;2022-10-16T13:33:56;15.93;;;3.40;;
71108;SDS011;59614;51.012;-1.648;2022-10-16T13:36:26;17.02;;;4.15;;
71108;SDS011;59614;51.012;-1.648;2022-10-16T13:41:39;21.42;;;3.97;;
71108;SDS011;59614;51.012;-1.648;2022-10-16T13:44:10;21.63;;;3.30;;
71108;SDS011;59614;51.012;-1.648;2022-10-16T13:46:41;17.20;;;3.30;;
71108;SDS011;59614;51.012;-1.648;2022-10-16T13:49:16;19.58;;;3.65;;
71108;SDS011;59614;51.012;-1.648;2022-10-16T13:51:53;29.88;;;4.28;;
71108;SDS011;59614;51.012;-1.648;2022-10-16T13:54:25;20.63;;;4.03;;
71108;SDS011;59614;51.012;-1.648;2022-10-16T13:56:51;24.75;;;3.58;;
71108;SDS011;59614;51.012;-1.648;2022-10-16T14:05:02;19.35;;;3.17;;
71108;SDS011;59614;51.012;-1.648;2022-10-16T14:07:30;17.88;;;3.60;;
71108;SDS011;59614;51.012;-1.648;2022-10-16T14:10:02;18.08;;;3.22;;
71108;SDS011;59614;51.012;-1.648;2022-10-16T14:12:30;17.98;;;3.78;;
71108;SDS011;59614;51.012;-1.648;2022-10-16T14:14:56;24.25;;;4.00;;
71108;SDS011;59614;51.012;-1.648;2022-10-16T14:17:34;16.65;;;3.35;;
71108;SDS011;59614;51.012;-1.648;2022-10-16T14:20:03;16.95;;;3.30;;
71108;SDS011;59614;51.012;-1.648;2022-10-16T14:22:32;19.25;;;3.70;;
71108;SDS011;59614;51.012;-1.648;2022-10-16T14:24:58;20.15;;;3.72;;
71108;SDS011;59614;51.012;-1.648;2022-10-16T14:30:16;19.02;;;3.55;;
71108;SDS011;59614;51.012;-1.648;2022-10-16T14:32:54;21.80;;;3.92;;
71108;SDS011;59614;51.012;-1.648;2022-10-16T14:35:24;21.17;;;3.85;;
71108;SDS011;59614;51.012;-1.648;2022-10-16T14:37:58;20.40;;;3.25;;
71108;SDS011;59614;51.012;-1.648;2022-10-16T14:40:27;20.42;;;3.80;;
71108;SDS011;59614;51.012;-1.648;2022-10-16T14:42:55;18.42;;;3.75;;
71108;SDS011;59614;51.012;-1.648;2022-10-16T14:45:21;19.75;;;3.95;;
71108;SDS011;59614;51.012;-1.648;2022-10-16T14:47:55;23.35;;;4.35;;
71108;SDS011;59614;51.012;-1.648;2022-10-16T14:50:22;19.60;;;4.20;;
71108;SDS011;59614;51.012;-1.648;2022-10-16T14:52:48;18.05;;;3.55;;
71108;SDS011;59614;51.012;-1.648;2022-10-16T14:55:14;20.20;;;3.67;;
71108;SDS011;59614;51.012;-1.648;2022-10-16T14:57:40;15.60;;;3.30;;
71108;SDS011;59614;51.012;-1.648;2022-10-16T15:00:24;26.58;;;3.78;;
71108;SDS011;59614;51.012;-1.648;2022-10-16T15:02:50;18.67;;;3.50;;
71108;SDS011;59614;51.012;-1.648;2022-10-16T15:05:20;16.10;;;3.00;;
71108;SDS011;59614;51.012;-1.648;2022-10-16T15:07:48;16.27;;;4.10;;
71108;SDS011;59614;51.012;-1.648;2022-10-16T15:10:15;22.10;;;3.70;;
71108;SDS011;59614;51.012;-1.648;2022-10-16T15:15:23;17.98;;;3.10;;
71108;SDS011;59614;51.012;-1.648;2022-10-16T15:17:53;16.88;;;3.20;;
71108;SDS011;59614;51.012;-1.648;2022-10-16T15:20:32;23.90;;;3.78;;
71108;SDS011;59614;51.012;-1.648;2022-10-16T15:23:03;15.70;;;3.53;;
71108;SDS011;59614;51.012;-1.648;2022-10-16T15:25:36;15.05;;;2.70;;
71108;SDS011;59614;51.012;-1.648;2022-10-16T15:28:09;15.50;;;3.17;;
71108;SDS011;59614;51.012;-1.648;2022-10-16T15:30:36;19.20;;;3.95;;
71108;SDS011;59614;51.012;-1.648;2022-10-16T15:33:03;19.42;;;3.17;;
71108;SDS011;59614;51.012;-1.648;2022-10-16T15:35:29;19.02;;;3.30;;
71108;SDS011;59614;51.012;-1.648;2022-10-16T15:37:55;21.77;;;3.90;;
71108;SDS011;59614;51.012;-1.648;2022-10-16T15:40:21;25.73;;;7.03;;
71108;SDS011;59614;51.012;-1.648;2022-10-16T15:42:47;31.80;;;6.38;;
71108;SDS011;59614;51.012;-1.648;2022-10-16T15:45:14;17.98;;;4.88;;
71108;SDS011;59614;51.012;-1.648;2022-10-16T15:47:43;19.05;;;4.45;;
71108;SDS011;59614;51.012;-1.648;2022-10-16T15:50:09;16.60;;;3.63;;
71108;SDS011;59614;51.012;-1.648;2022-10-16T15:52:36;22.23;;;3.42;;
71108;SDS011;59614;51.012;-1.648;2022-10-16T15:55:04;18.60;;;3.30;;
71108;SDS011;59614;51.012;-1.648;2022-10-16T15:57:36;21.77;;;3.22;;
71108;SDS011;59614;51.012;-1.648;2022-10-16T16:00:05;26.70;;;3.70;;
71108;SDS011;59614;51.012;-1.648;2022-10-16T16:02:32;16.90;;;3.03;;
71108;SDS011;59614;51.012;-1.648;2022-10-16T16:04:58;18.77;;;3.90;;
71108;SDS011;59614;51.012;-1.648;2022-10-16T16:07:23;15.38;;;3.42;;
71108;SDS011;59614;51.012;-1.648;2022-10-16T16:09:49;17.73;;;3.08;;
71108;SDS011;59614;51.012;-1.648;2022-10-16T16:12:15;17.85;;;3.60;;
71108;SDS011;59614;51.012;-1.648;2022-10-16T16:14:40;21.20;;;4.25;;
71108;SDS011;59614;51.012;-1.648;2022-10-16T16:17:06;18.88;;;3.92;;
71108;SDS011;59614;51.012;-1.648;2022-10-16T16:19:32;18.90;;;3.67;;
71108;SDS011;59614;51.012;-1.648;2022-10-16T16:21:57;21.13;;;3.72;;
71108;SDS011;59614;51.012;-1.648;2022-10-16T16:24:23;22.15;;;3.60;;
71108;SDS011;59614;51.012;-1.648;2022-10-16T16:26:48;23.52;;;4.15;;
71108;SDS011;59614;51.012;-1.648;2022-10-16T16:29:14;10.35;;;3.50;;
71108;SDS011;59614;51.012;-1.648;2022-10-16T16:31:41;21.15;;;3.80;;
71108;SDS011;59614;51.012;-1.648;2022-10-16T16:34:07;21.60;;;3.88;;
71108;SDS011;59614;51.012;-1.648;2022-10-16T16:36:33;14.85;;;4.50;;
71108;SDS011;59614;51.012;-1.648;2022-10-16T16:38:59;20.90;;;4.32;;
71108;SDS011;59614;51.012;-1.648;2022-10-16T16:41:26;16.50;;;4.03;;
71108;SDS011;59614;51.012;-1.648;2022-10-16T16:46:18;13.68;;;3.58;;
71108;SDS011;59614;51.012;-1.648;2022-10-16T16:48:45;18.85;;;3.78;;
71108;SDS011;59614;51.012;-1.648;2022-10-16T16:51:15;21.23;;;4.30;;
71108;SDS011;59614;51.012;-1.648;2022-10-16T16:53:45;14.20;;;4.32;;
71108;SDS011;59614;51.012;-1.648;2022-10-16T16:56:11;21.83;;;4.65;;
71108;SDS011;59614;51.012;-1.648;2022-10-16T16:58:37;16.02;;;4.93;;
71108;SDS011;59614;51.012;-1.648;2022-10-16T17:01:03;21.40;;;5.55;;
71108;SDS011;59614;51.012;-1.648;2022-10-16T17:03:29;28.52;;;6.20;;
71108;SDS011;59614;51.012;-1.648;2022-10-16T17:06:06;18.67;;;5.63;;
71108;SDS011;59614;51.012;-1.648;2022-10-16T17:08:34;27.45;;;5.50;;